Portada
METAR-TAF:

METAR-TAF

Aeroports :

Williamsburg-Jamestown Airport

Williamsburg, Virgínia, Estats Units d'Amèrica

latitud: 37-14-21N, longitud: 076-42-57W, altitud: 15 m

Observació

L'informe es va fer fa 29 minuts, a les 00:35 UTC
Vent calma
Temperatura 28°C
Humitat 79%
Pressió 1015 hPa
Visibilitat: 16.1 km

METAR: KJGG 110035Z AUTO 00000KT 10SM 28/24 A2998 RMK AO1

Hora: 21:04 (01:04 UTC)


TAF: manca

Observacions i pronòstics meteorològics de més de 4000 aeroports (METAR i TAF).

Les estacions disponibles són els punts grocs i vermells al mapa.

Posi el ratolí al punt desitjat per veure el nom de l'estació.

Feu clic per veure les observacions i els pronòstics meteorològics.

Per canviar el mapa: feu clic els botons verds amb una creu de color negre per apropar; al botó verd amb un guió per allunyar la imatge; o en les fletxes verdes per a mapes adjacents.


METAR-TAF: